createdAt,value
2019-04-16T00:02:51.240Z,3.85
2019-04-16T00:05:44.875Z,3.79
2019-04-16T00:08:27.685Z,3.90
2019-04-16T00:10:59.021Z,3.78
2019-04-16T00:13:42.780Z,3.72
2019-04-16T00:16:14.032Z,3.77
2019-04-16T00:18:56.789Z,3.87
2019-04-16T00:21:44.893Z,3.90
2019-04-16T00:24:29.507Z,3.70
2019-04-16T00:27:01.430Z,3.68
2019-04-16T00:29:33.810Z,3.63
2019-04-16T00:32:16.321Z,3.57
2019-04-16T00:34:48.224Z,3.61
2019-04-16T00:37:21.308Z,3.69
2019-04-16T00:39:56.052Z,3.64
2019-04-16T00:42:27.271Z,3.52
2019-04-16T00:44:59.276Z,3.52
2019-04-16T00:47:31.166Z,3.57
2019-04-16T00:50:03.123Z,3.54
2019-04-16T00:52:36.930Z,3.57
2019-04-16T00:55:13.652Z,3.53
2019-04-16T00:57:48.426Z,3.41
2019-04-16T01:00:17.588Z,3.36
2019-04-16T01:02:49.646Z,3.34
2019-04-16T01:05:21.689Z,3.39
2019-04-16T01:07:53.716Z,3.31
2019-04-16T01:10:25.576Z,3.46
2019-04-16T01:12:57.958Z,3.55
2019-04-16T01:15:32.071Z,3.47
2019-04-16T01:18:04.571Z,3.27
2019-04-16T01:20:40.374Z,3.33
2019-04-16T01:23:11.638Z,3.39
2019-04-16T01:25:43.516Z,3.30
2019-04-16T01:28:18.580Z,3.18
2019-04-16T01:31:21.616Z,3.02
2019-04-16T01:34:10.452Z,3.11
2019-04-16T01:36:56.700Z,3.13
2019-04-16T01:39:30.640Z,2.99
2019-04-16T01:42:02.653Z,2.96
2019-04-16T01:44:33.987Z,3.03
2019-04-16T01:47:07.215Z,3.02
2019-04-16T01:49:42.024Z,3.01
2019-04-16T01:52:18.628Z,2.98
2019-04-16T01:54:47.477Z,2.92
2019-04-16T01:57:19.512Z,2.86
2019-04-16T01:59:51.567Z,2.81
2019-04-16T02:02:23.472Z,2.83
2019-04-16T02:04:55.428Z,2.79
2019-04-16T02:07:28.044Z,2.88
2019-04-16T02:10:00.740Z,2.82
2019-04-16T02:12:32.725Z,2.84
2019-04-16T02:15:04.212Z,2.90
2019-04-16T02:17:36.149Z,2.86
2019-04-16T02:20:08.666Z,2.78
2019-04-16T02:22:42.227Z,2.79
2019-04-16T02:25:18.888Z,2.79
2019-04-16T02:27:48.380Z,2.66
2019-04-16T02:30:20.234Z,2.53
2019-04-16T02:32:51.634Z,2.69
2019-04-16T02:35:23.483Z,2.59
2019-04-16T02:37:55.694Z,2.57
2019-04-16T02:40:30.044Z,2.38
2019-04-16T02:43:08.116Z,2.19
2019-04-16T02:45:40.056Z,2.23
2019-04-16T02:48:16.574Z,2.19
2019-04-16T02:50:49.936Z,2.06
2019-04-16T02:53:58.766Z,2.06
2019-04-16T02:56:59.692Z,1.96
2019-04-16T02:59:34.867Z,2.02
2019-04-16T03:02:27.850Z,1.95
2019-04-16T03:05:29.030Z,1.91
2019-04-16T03:08:05.023Z,1.87
2019-04-16T03:10:35.387Z,1.63
2019-04-16T03:13:07.291Z,1.62
2019-04-16T03:15:58.629Z,1.64
2019-04-16T03:18:46.938Z,1.67
2019-04-16T03:21:15.319Z,1.78
2019-04-16T03:23:47.167Z,1.78
2019-04-16T03:26:18.987Z,1.73
2019-04-16T03:28:50.859Z,1.89
2019-04-16T03:31:23.701Z,1.88
2019-04-16T03:33:55.732Z,1.83
2019-04-16T03:36:29.501Z,1.79
2019-04-16T03:39:01.231Z,1.58
2019-04-16T03:41:34.682Z,1.50
2019-04-16T03:44:06.567Z,1.55
2019-04-16T03:46:40.080Z,1.67
2019-04-16T03:49:11.380Z,1.58
2019-04-16T03:51:43.270Z,1.50
2019-04-16T03:54:15.063Z,1.48
2019-04-16T03:56:46.925Z,1.48
2019-04-16T03:59:18.770Z,1.44
2019-04-16T04:01:50.637Z,1.41
2019-04-16T04:04:22.463Z,1.50
2019-04-16T04:06:53.667Z,1.48
2019-04-16T04:09:25.477Z,1.48
2019-04-16T04:11:57.517Z,1.52
2019-04-16T04:14:29.407Z,1.51
2019-04-16T04:17:05.470Z,1.55
2019-04-16T04:19:34.982Z,1.60
2019-04-16T04:22:07.023Z,1.64
2019-04-16T04:24:38.487Z,1.61
2019-04-16T04:27:14.783Z,1.60
2019-04-16T04:29:46.248Z,1.63
2019-04-16T04:32:17.472Z,1.70
2019-04-16T04:34:49.582Z,1.76
2019-04-16T04:37:21.675Z,1.79
2019-04-16T04:39:52.915Z,1.78
2019-04-16T04:42:25.596Z,1.85
2019-04-16T04:44:58.787Z,1.95
2019-04-16T04:47:30.627Z,2.01
2019-04-16T04:50:03.492Z,2.10
2019-04-16T04:52:36.234Z,2.17
2019-04-16T04:55:08.382Z,2.24
2019-04-16T04:57:40.258Z,2.30
2019-04-16T05:00:12.834Z,2.38
2019-04-16T05:02:44.469Z,2.46
2019-04-16T05:05:26.690Z,2.53
2019-04-16T05:07:59.949Z,2.62
2019-04-16T05:10:32.010Z,2.72
2019-04-16T05:13:03.923Z,2.80
2019-04-16T05:15:36.155Z,2.87
2019-04-16T05:18:09.958Z,2.91
2019-04-16T05:20:46.773Z,2.96
2019-04-16T05:23:15.214Z,3.02
2019-04-16T05:25:47.126Z,3.04
2019-04-16T05:28:18.938Z,3.11
2019-04-16T05:30:52.164Z,3.08
2019-04-16T05:33:23.963Z,3.14
2019-04-16T05:35:55.138Z,3.18
2019-04-16T05:38:26.942Z,3.26
2019-04-16T05:41:12.243Z,3.28
2019-04-16T05:43:32.408Z,3.39
2019-04-16T05:46:05.548Z,3.50
2019-04-16T05:48:37.842Z,3.60
2019-04-16T05:51:09.122Z,3.73
2019-04-16T05:53:42.510Z,3.74
2019-04-16T05:56:42.398Z,3.88
2019-04-16T05:59:14.189Z,4.02
2019-04-16T06:01:57.330Z,4.00
2019-04-16T06:04:28.834Z,4.02
2019-04-16T06:07:04.976Z,4.06
2019-04-16T06:09:34.386Z,4.09
2019-04-16T06:12:08.772Z,4.15
2019-04-16T06:15:04.839Z,4.25
2019-04-16T06:18:11.024Z,4.35
2019-04-16T06:21:03.827Z,4.47
2019-04-16T06:23:53.895Z,4.58
2019-04-16T06:26:44.436Z,4.75
2019-04-16T06:29:35.826Z,4.83
2019-04-16T06:32:31.299Z,4.86
2019-04-16T06:35:25.262Z,4.98
2019-04-16T06:38:10.931Z,5.14
2019-04-16T06:41:04.046Z,5.27
2019-04-16T06:43:49.931Z,5.41
2019-04-16T06:46:40.011Z,5.50
2019-04-16T06:49:28.149Z,5.64
2019-04-16T06:52:30.978Z,5.81
2019-04-16T06:55:19.867Z,5.81
2019-04-16T06:59:32.452Z,5.97
2019-04-16T07:01:07.229Z,6.06
2019-04-16T07:04:01.630Z,6.33
2019-04-16T07:06:47.992Z,6.45
2019-04-16T07:09:45.992Z,6.60
2019-04-16T07:12:23.149Z,6.72
2019-04-16T07:15:03.035Z,6.92
2019-04-16T07:17:36.191Z,6.95
2019-04-16T07:20:14.289Z,6.97
2019-04-16T07:22:44.148Z,7.09
2019-04-16T07:25:16.512Z,7.27
2019-04-16T07:28:13.839Z,7.42
2019-04-16T07:31:07.523Z,7.45
2019-04-16T07:33:57.623Z,7.53
2019-04-16T07:36:47.359Z,7.71
2019-04-16T07:39:29.343Z,7.87
2019-04-16T07:42:33.236Z,7.97
2019-04-16T07:45:13.756Z,8.20
2019-04-16T07:48:22.793Z,8.33
2019-04-16T07:51:21.389Z,8.45
2019-04-16T07:54:18.812Z,8.70
2019-04-16T07:56:52.769Z,9.01
2019-04-16T07:59:24.033Z,9.21
2019-04-16T08:01:55.938Z,9.24
2019-04-16T08:04:35.415Z,9.31
2019-04-16T08:07:02.396Z,9.36
2019-04-16T08:09:34.298Z,9.39
2019-04-16T08:12:10.846Z,9.51
2019-04-16T08:14:39.784Z,9.83
2019-04-16T08:17:14.459Z,9.92
2019-04-16T08:19:49.401Z,10.04
2019-04-16T08:22:20.828Z,10.11
2019-04-16T08:25:03.221Z,10.18
2019-04-16T08:27:35.188Z,10.40
2019-04-16T08:30:10.675Z,10.50
2019-04-16T08:32:42.530Z,10.57
2019-04-16T08:35:14.489Z,10.61
2019-04-16T08:37:49.097Z,10.69
2019-04-16T08:40:19.989Z,10.98
2019-04-16T08:42:57.027Z,11.08
2019-04-16T08:45:25.967Z,11.11
2019-04-16T08:47:57.771Z,11.29
2019-04-16T08:50:29.031Z,11.43
2019-04-16T08:53:00.892Z,11.45
2019-04-16T08:55:32.207Z,11.46
2019-04-16T08:58:06.309Z,11.62
2019-04-16T09:00:38.134Z,11.84
2019-04-16T09:03:10.029Z,11.81
2019-04-16T09:05:42.132Z,11.80
2019-04-16T09:08:32.874Z,11.82
2019-04-16T09:11:05.108Z,12.05
2019-04-16T09:13:44.458Z,12.20
2019-04-16T09:16:15.616Z,12.26
2019-04-16T09:18:59.464Z,12.31
2019-04-16T09:21:31.924Z,12.33
2019-04-16T09:24:21.228Z,12.42
2019-04-16T09:27:28.666Z,12.55
2019-04-16T09:30:21.811Z,12.57
2019-04-16T09:33:00.721Z,12.62
2019-04-16T09:35:45.006Z,12.59
2019-04-16T09:38:36.658Z,12.70
2019-04-16T09:41:33.639Z,12.57
2019-04-16T09:44:06.323Z,12.67
2019-04-16T09:46:53.329Z,12.71
2019-04-16T09:49:12.046Z,12.88
2019-04-16T09:51:43.956Z,12.95
2019-04-16T09:54:15.860Z,12.87
2019-04-16T09:56:47.813Z,12.91
2019-04-16T09:59:35.196Z,12.96
2019-04-16T10:02:19.388Z,13.01
2019-04-16T10:04:51.327Z,13.01
2019-04-16T10:07:23.556Z,13.05
2019-04-16T10:09:55.341Z,12.92
2019-04-16T10:12:27.236Z,12.89
2019-04-16T10:15:02.020Z,12.98
2019-04-16T10:17:39.406Z,13.02
2019-04-16T10:20:13.388Z,13.07
2019-04-16T10:22:46.494Z,13.00
2019-04-16T10:25:18.435Z,13.06
2019-04-16T10:28:01.888Z,12.94
2019-04-16T10:30:38.860Z,12.82
2019-04-16T10:33:10.237Z,13.05
2019-04-16T10:35:42.095Z,13.15
2019-04-16T10:38:32.738Z,13.19
2019-04-16T10:41:10.013Z,13.15
2019-04-16T10:44:00.775Z,13.01
2019-04-16T10:46:54.197Z,13.08
2019-04-16T10:49:36.240Z,13.02
2019-04-16T10:52:26.251Z,13.01
2019-04-16T10:55:13.336Z,13.08
2019-04-16T10:58:10.995Z,13.27
2019-04-16T11:00:51.695Z,13.06
2019-04-16T11:03:45.532Z,13.25
2019-04-16T11:06:35.699Z,13.33
2019-04-16T11:09:10.282Z,13.46
2019-04-16T11:11:42.465Z,13.48
2019-04-16T11:14:16.687Z,13.41
2019-04-16T11:17:10.408Z,13.34
2019-04-16T11:19:42.041Z,13.53
2019-04-16T11:22:14.312Z,13.64
2019-04-16T11:24:47.255Z,13.68
2019-04-16T11:27:19.299Z,13.81
2019-04-16T11:29:53.223Z,13.87
2019-04-16T11:32:28.660Z,13.95
2019-04-16T11:35:00.659Z,13.85
2019-04-16T11:37:36.117Z,13.86
2019-04-16T11:40:07.726Z,13.92
2019-04-16T11:42:40.752Z,13.93
2019-04-16T11:45:14.455Z,13.82
2019-04-16T11:47:48.228Z,13.66
2019-04-16T11:50:20.203Z,13.82
2019-04-16T11:52:58.373Z,13.93
2019-04-16T11:55:28.812Z,13.88
2019-04-16T11:58:10.693Z,13.80
2019-04-16T12:00:47.609Z,13.87
2019-04-16T12:03:27.592Z,14.07
2019-04-16T12:06:27.801Z,14.18
2019-04-16T12:09:04.999Z,14.18
2019-04-16T12:11:51.726Z,14.33
2019-04-16T12:14:42.145Z,14.32
2019-04-16T12:17:20.063Z,14.37
2019-04-16T12:20:10.928Z,14.17
2019-04-16T12:22:46.851Z,14.18
2019-04-16T12:25:40.899Z,14.15
2019-04-16T12:28:42.338Z,14.22
2019-04-16T12:31:19.002Z,14.20
2019-04-16T12:34:08.406Z,14.32
2019-04-16T12:36:50.929Z,14.44
2019-04-16T12:39:37.209Z,14.41
2019-04-16T12:42:42.150Z,14.28
2019-04-16T12:45:36.595Z,14.39
2019-04-16T12:48:45.701Z,14.31
2019-04-16T12:51:30.963Z,14.39
2019-04-16T12:54:25.253Z,14.31
2019-04-16T12:57:32.433Z,14.44
2019-04-16T13:00:20.438Z,14.43
2019-04-16T13:03:16.374Z,14.44
2019-04-16T13:06:03.702Z,14.48
2019-04-16T13:09:01.396Z,14.52
2019-04-16T13:11:53.439Z,14.59
2019-04-16T13:15:00.647Z,14.62
2019-04-16T13:17:41.290Z,14.60
2019-04-16T13:20:31.722Z,14.68
2019-04-16T13:23:09.117Z,14.81
2019-04-16T13:25:59.387Z,14.68
2019-04-16T13:28:31.424Z,14.56
2019-04-16T13:31:03.365Z,14.50
2019-04-16T13:33:35.686Z,14.45
2019-04-16T13:36:08.633Z,14.67
2019-04-16T13:38:44.815Z,14.63
2019-04-16T13:41:16.755Z,14.76
2019-04-16T13:43:53.370Z,14.75
2019-04-16T13:46:28.916Z,14.85
2019-04-16T13:49:06.845Z,14.76
2019-04-16T13:51:40.197Z,14.77
2019-04-16T13:55:29.599Z,14.76
2019-04-16T13:58:46.181Z,14.81
2019-04-16T14:01:26.051Z,14.96
2019-04-16T14:03:57.512Z,15.01
2019-04-16T14:06:46.201Z,14.82
2019-04-16T14:13:51.588Z,14.79
2019-04-16T14:16:20.848Z,14.87
2019-04-16T14:18:52.824Z,14.94
2019-04-16T14:21:24.768Z,14.98
2019-04-16T14:23:56.009Z,14.98
2019-04-16T14:26:27.882Z,15.09
2019-04-16T14:29:05.421Z,14.98
2019-04-16T14:31:32.845Z,14.89
2019-04-16T14:34:32.656Z,14.96
2019-04-16T14:37:03.985Z,14.96
2019-04-16T14:39:42.761Z,14.95
2019-04-16T14:42:16.154Z,15.01
2019-04-16T14:44:52.534Z,15.08
2019-04-16T14:48:17.121Z,15.06
2019-04-16T14:50:49.426Z,15.06
2019-04-16T15:02:45.742Z,15.03
2019-04-16T15:05:44.683Z,14.98
2019-04-16T15:08:36.588Z,14.92
2019-04-16T15:11:33.854Z,15.03
2019-04-16T15:14:27.277Z,15.02
2019-04-16T15:17:16.885Z,15.06
2019-04-16T15:19:59.083Z,15.07
2019-04-16T15:22:40.584Z,15.01
2019-04-16T15:25:33.993Z,14.97
2019-04-16T15:28:22.476Z,14.89
2019-04-16T15:31:00.726Z,14.87
2019-04-16T15:33:44.411Z,14.86
2019-04-16T15:36:22.346Z,14.88
2019-04-16T15:39:15.974Z,15.00
2019-04-16T15:42:06.206Z,14.97
2019-04-16T15:44:41.494Z,15.06
2019-04-16T15:47:42.913Z,15.07
2019-04-16T15:50:37.045Z,15.00
2019-04-16T15:53:30.434Z,15.01
2019-04-16T15:56:18.210Z,14.95
2019-04-16T15:58:53.780Z,14.99
2019-04-16T16:01:48.989Z,14.95
2019-04-16T16:04:41.453Z,14.92
2019-04-16T16:07:17.769Z,14.89
2019-04-16T16:10:21.350Z,14.88
2019-04-16T16:12:56.626Z,14.87
2019-04-16T16:15:33.854Z,14.83
2019-04-16T16:18:14.495Z,14.78
2019-04-16T16:21:41.618Z,14.79
2019-04-16T16:25:08.411Z,14.80
2019-04-16T16:32:41.553Z,14.68
2019-04-16T16:35:18.013Z,14.60
2019-04-16T16:38:01.630Z,14.64
2019-04-16T16:41:05.617Z,14.53
2019-04-16T16:44:23.710Z,14.56
2019-04-16T16:47:44.572Z,14.52
2019-04-16T16:51:10.633Z,14.50
2019-04-16T16:53:44.457Z,14.48
2019-04-16T16:56:26.320Z,14.26
2019-04-16T16:59:05.272Z,14.24
2019-04-16T17:01:58.180Z,14.15
2019-04-16T17:04:34.799Z,14.04
2019-04-16T17:07:07.040Z,14.17
2019-04-16T17:09:39.371Z,14.27
2019-04-16T17:12:17.181Z,14.21
2019-04-16T17:14:52.668Z,14.38
2019-04-16T17:17:26.153Z,14.18
2019-04-16T17:19:57.867Z,14.25
2019-04-16T17:22:30.801Z,14.04
2019-04-16T17:25:03.756Z,13.71
2019-04-16T17:27:50.226Z,13.70
2019-04-16T17:30:10.421Z,13.55
2019-04-16T17:32:42.253Z,13.42
2019-04-16T17:35:16.819Z,13.26
2019-04-16T17:37:48.843Z,13.19
2019-04-16T17:40:58.637Z,13.06
2019-04-16T17:43:26.045Z,12.78
2019-04-16T17:46:20.016Z,12.64
2019-04-16T17:49:04.433Z,12.64
2019-04-16T17:51:47.397Z,12.59
2019-04-16T17:54:54.317Z,12.32
2019-04-16T17:57:42.680Z,12.33
2019-04-16T18:00:37.689Z,12.06
2019-04-16T18:03:27.733Z,11.71
2019-04-16T18:06:20.685Z,11.80
2019-04-16T18:09:26.547Z,11.42
2019-04-16T18:12:20.717Z,11.55
2019-04-16T18:15:09.204Z,11.83
2019-04-16T18:18:05.076Z,11.60
2019-04-16T18:21:02.319Z,11.51
2019-04-16T18:23:51.715Z,11.24
2019-04-16T18:26:51.195Z,11.07
2019-04-16T18:29:45.027Z,11.18
2019-04-16T18:32:39.009Z,11.20
2019-04-16T18:35:20.373Z,11.06
2019-04-16T18:38:08.388Z,11.02
2019-04-16T18:41:04.831Z,11.02
2019-04-16T18:43:46.829Z,10.83
2019-04-16T18:46:30.098Z,10.82
2019-04-16T18:49:08.797Z,10.70
2019-04-16T18:51:40.296Z,10.58
2019-04-16T18:54:14.976Z,10.53
2019-04-16T18:56:48.358Z,10.40
2019-04-16T18:59:20.273Z,10.59
2019-04-16T19:01:56.546Z,10.40
2019-04-16T19:04:28.042Z,10.59
2019-04-16T19:07:01.786Z,10.50
2019-04-16T19:09:33.493Z,10.27
2019-04-16T19:12:06.014Z,10.44
2019-04-16T19:14:41.431Z,10.31
2019-04-16T19:17:16.713Z,10.01
2019-04-16T19:19:47.393Z,9.92
2019-04-16T19:22:20.096Z,9.81
2019-04-16T19:24:52.447Z,10.10
2019-04-16T19:27:24.097Z,10.04
2019-04-16T19:29:55.630Z,10.13
2019-04-16T19:32:42.893Z,10.13
2019-04-16T19:35:19.069Z,9.96
2019-04-16T19:37:48.413Z,10.00
2019-04-16T19:40:19.905Z,9.97
2019-04-16T19:42:52.031Z,9.80
2019-04-16T19:45:25.148Z,9.87
2019-04-16T19:48:00.621Z,9.80
2019-04-16T19:50:36.062Z,9.79
2019-04-16T19:53:05.732Z,9.59
2019-04-16T19:55:37.543Z,9.33
2019-04-16T19:58:09.540Z,9.12
2019-04-16T20:00:43.169Z,9.21
2019-04-16T20:03:15.212Z,9.09
2019-04-16T20:05:47.446Z,9.15
2019-04-16T20:08:21.866Z,9.11
2019-04-16T20:10:53.908Z,9.16
2019-04-16T20:13:29.021Z,9.12
2019-04-16T20:16:00.697Z,9.02
2019-04-16T20:18:33.626Z,8.99
2019-04-16T20:21:06.405Z,8.94
2019-04-16T20:23:37.763Z,8.88
2019-04-16T20:26:09.063Z,8.92
2019-04-16T20:28:40.951Z,8.81
2019-04-16T20:31:12.568Z,8.94
2019-04-16T20:33:45.239Z,8.91
2019-04-16T20:36:22.431Z,8.75
2019-04-16T20:38:50.974Z,8.66
2019-04-16T20:41:22.274Z,8.66
2019-04-16T20:43:53.662Z,8.73
2019-04-16T20:46:25.621Z,8.57
2019-04-16T20:49:08.256Z,8.45
2019-04-16T20:51:31.875Z,8.55
2019-04-16T20:54:04.267Z,8.66
2019-04-16T20:56:36.209Z,8.51
2019-04-16T20:59:07.533Z,8.42
2019-04-16T21:01:39.748Z,8.41
2019-04-16T21:04:11.811Z,8.43
2019-04-16T21:06:43.450Z,8.59
2019-04-16T21:09:15.556Z,8.53
2019-04-16T21:11:47.807Z,8.48
2019-04-16T21:14:23.102Z,8.44
2019-04-16T21:16:55.077Z,8.40
2019-04-16T21:19:46.784Z,8.37
2019-04-16T21:22:18.652Z,8.39
2019-04-16T21:24:50.591Z,8.27
2019-04-16T21:27:22.699Z,8.35
2019-04-16T21:29:53.974Z,8.28
2019-04-16T21:32:48.734Z,8.37
2019-04-16T21:35:25.424Z,8.34
2019-04-16T21:38:10.634Z,8.40
2019-04-16T21:40:42.515Z,8.23
2019-04-16T21:43:14.342Z,8.06
2019-04-16T21:45:48.043Z,7.90
2019-04-16T21:48:19.085Z,8.02
2019-04-16T21:50:53.928Z,8.05
2019-04-16T21:53:24.599Z,7.94
2019-04-16T21:55:57.377Z,7.96
2019-04-16T21:58:29.345Z,7.95
2019-04-16T22:01:18.166Z,7.85
2019-04-16T22:03:55.070Z,7.96
2019-04-16T22:06:26.953Z,8.01
2019-04-16T22:09:03.254Z,7.91
2019-04-16T22:11:37.190Z,7.85
2019-04-16T22:14:08.505Z,7.92
2019-04-16T22:16:39.726Z,7.93
2019-04-16T22:19:14.011Z,7.75
2019-04-16T22:21:43.909Z,7.81
2019-04-16T22:24:15.869Z,7.75
2019-04-16T22:26:47.704Z,7.57
2019-04-16T22:29:19.580Z,7.50
2019-04-16T22:31:52.730Z,7.53
2019-04-16T22:34:24.356Z,7.65
2019-04-16T22:36:55.539Z,7.59
2019-04-16T22:39:51.960Z,7.37
2019-04-16T22:42:37.691Z,7.17
2019-04-16T22:45:26.758Z,7.19
2019-04-16T22:47:59.003Z,7.12
2019-04-16T22:50:30.889Z,7.39
2019-04-16T22:53:02.790Z,7.37
2019-04-16T22:55:34.041Z,7.19
2019-04-16T22:58:08.024Z,7.06
2019-04-16T23:00:44.379Z,6.95
2019-04-16T23:03:19.597Z,7.11
2019-04-16T23:05:50.729Z,6.99
2019-04-16T23:08:22.583Z,7.04
2019-04-16T23:10:53.835Z,6.98
2019-04-16T23:13:25.696Z,7.11
2019-04-16T23:15:57.606Z,7.05
2019-04-16T23:18:28.848Z,7.00
2019-04-16T23:21:00.042Z,6.85
2019-04-16T23:23:34.168Z,6.86
2019-04-16T23:26:06.499Z,6.80
2019-04-16T23:28:39.751Z,6.64
2019-04-16T23:31:12.124Z,6.68
2019-04-16T23:33:44.022Z,6.63
2019-04-16T23:36:16.532Z,6.47
2019-04-16T23:38:48.412Z,6.33
2019-04-16T23:41:20.339Z,6.36
2019-04-16T23:44:09.939Z,6.24
2019-04-16T23:47:08.685Z,6.43
2019-04-16T23:49:58.868Z,6.31
2019-04-16T23:52:35.347Z,6.14
2019-04-16T23:55:16.638Z,5.98
2019-04-16T23:58:02.762Z,5.97
